createdAt,value
2018-04-19T00:01:19.114Z,14.90
2018-04-19T00:03:50.372Z,15.00
2018-04-19T00:06:21.553Z,14.90
2018-04-19T00:08:53.477Z,15.10
2018-04-19T00:11:24.671Z,15.00
2018-04-19T00:13:56.626Z,14.90
2018-04-19T00:16:28.613Z,14.80
2018-04-19T00:18:59.776Z,14.80
2018-04-19T00:21:30.975Z,14.70
2018-04-19T00:24:02.994Z,14.70
2018-04-19T00:26:34.194Z,14.70
2018-04-19T00:29:06.134Z,14.70
2018-04-19T00:31:37.339Z,14.60
2018-04-19T00:34:08.557Z,14.50
2018-04-19T00:36:39.772Z,14.50
2018-04-19T00:41:43.905Z,14.40
2018-04-19T00:44:15.183Z,14.40
2018-04-19T00:46:47.523Z,14.30
2018-04-19T00:49:18.750Z,14.30
2018-04-19T00:51:49.931Z,14.30
2018-04-19T00:54:21.112Z,14.20
2018-04-19T00:56:52.281Z,14.30
2018-04-19T00:59:23.498Z,14.30
2018-04-19T01:01:54.655Z,14.20
2018-04-19T01:04:25.870Z,14.20
2018-04-19T01:06:57.047Z,14.20
2018-04-19T01:09:28.268Z,14.10
2018-04-19T01:11:59.455Z,14.20
2018-04-19T01:14:31.394Z,14.10
2018-04-19T01:17:02.572Z,14.10
2018-04-19T01:19:34.534Z,14.10
2018-04-19T01:22:06.439Z,14.10
2018-04-19T01:24:37.697Z,14.00
2018-04-19T01:27:08.888Z,14.00
2018-04-19T01:29:40.102Z,14.00
2018-04-19T01:32:12.030Z,14.00
2018-04-19T01:34:43.241Z,13.90
2018-04-19T01:37:14.441Z,13.90
2018-04-19T01:39:45.621Z,13.90
2018-04-19T01:42:16.839Z,13.80
2018-04-19T01:44:48.128Z,13.80
2018-04-19T01:47:19.334Z,13.80
2018-04-19T01:49:51.320Z,13.80
2018-04-19T01:52:22.533Z,13.80
2018-04-19T01:54:53.723Z,13.90
2018-04-19T01:57:24.889Z,13.90
2018-04-19T01:59:56.311Z,13.80
2018-04-19T02:02:27.517Z,13.90
2018-04-19T02:04:59.528Z,13.80
2018-04-19T02:07:30.774Z,13.80
2018-04-19T02:10:03.042Z,13.80
2018-04-19T02:12:34.376Z,13.80
2018-04-19T02:15:05.590Z,13.70
2018-04-19T02:17:37.501Z,13.70
2018-04-19T02:20:08.682Z,13.70
2018-04-19T02:22:40.641Z,13.70
2018-04-19T02:25:12.598Z,13.80
2018-04-19T02:27:44.802Z,13.80
2018-04-19T02:30:16.027Z,13.70
2018-04-19T02:32:47.976Z,13.70
2018-04-19T02:35:19.967Z,13.70
2018-04-19T02:37:51.145Z,13.70
2018-04-19T02:40:22.317Z,13.60
2018-04-19T02:42:54.690Z,13.50
2018-04-19T02:45:25.937Z,13.50
2018-04-19T02:47:57.875Z,13.50
2018-04-19T02:50:29.049Z,13.50
2018-04-19T02:53:01.254Z,13.50
2018-04-19T02:55:32.426Z,13.50
2018-04-19T02:58:03.838Z,13.50
2018-04-19T03:00:35.039Z,13.40
2018-04-19T03:03:07.022Z,13.30
2018-04-19T03:05:39.006Z,13.30
2018-04-19T03:08:10.182Z,13.30
2018-04-19T03:10:41.373Z,13.40
2018-04-19T03:13:12.572Z,13.40
2018-04-19T03:15:43.794Z,13.30
2018-04-19T03:18:15.026Z,13.40
2018-04-19T03:20:46.218Z,13.30
2018-04-19T03:23:17.390Z,13.30
2018-04-19T03:25:49.382Z,13.30
2018-04-19T03:28:20.538Z,13.30
2018-04-19T03:30:52.853Z,13.20
2018-04-19T03:33:24.094Z,13.20
2018-04-19T03:35:56.106Z,13.10
2018-04-19T03:38:27.301Z,13.10
2018-04-19T03:40:59.278Z,13.10
2018-04-19T03:43:30.490Z,13.10
2018-04-19T03:46:01.806Z,13.10
2018-04-19T03:48:33.030Z,13.10
2018-04-19T03:51:04.929Z,13.10
2018-04-19T03:53:36.062Z,13.10
2018-04-19T03:56:07.315Z,13.10
2018-04-19T03:58:38.495Z,13.10
2018-04-19T04:01:10.529Z,13.10
2018-04-19T04:03:41.636Z,13.10
2018-04-19T04:06:12.908Z,13.10
2018-04-19T04:08:44.099Z,13.10
2018-04-19T04:11:15.346Z,13.10
2018-04-19T04:13:46.539Z,13.10
2018-04-19T04:16:31.098Z,13.20
2018-04-19T04:19:14.638Z,13.10
2018-04-19T04:21:58.141Z,13.10
2018-04-19T04:24:29.381Z,13.10
2018-04-19T04:27:00.584Z,13.20
2018-04-19T04:29:32.563Z,13.20
2018-04-19T04:32:03.805Z,13.20
2018-04-19T04:34:35.009Z,13.20
2018-04-19T04:37:07.128Z,13.10
2018-04-19T04:39:38.344Z,13.10
2018-04-19T04:42:10.339Z,13.10
2018-04-19T04:44:41.578Z,13.10
2018-04-19T04:47:12.839Z,13.20
2018-04-19T04:49:44.076Z,13.20
2018-04-19T04:52:15.321Z,13.20
2018-04-19T04:54:46.544Z,13.20
2018-04-19T04:57:17.788Z,13.30
2018-04-19T04:59:49.160Z,13.30
2018-04-19T05:02:20.381Z,13.30
2018-04-19T05:04:51.935Z,13.40
2018-04-19T05:07:23.185Z,13.40
2018-04-19T05:09:54.343Z,13.50
2018-04-19T05:12:25.578Z,13.60
2018-04-19T05:14:56.786Z,13.50
2018-04-19T05:17:28.994Z,13.50
2018-04-19T06:42:01.657Z,13.60
2018-04-19T06:44:32.848Z,15.90
2018-04-19T06:47:04.081Z,15.90
2018-04-19T06:49:35.307Z,16.00
2018-04-19T06:52:06.573Z,16.10
2018-04-19T06:54:38.291Z,16.20
2018-04-19T06:57:09.450Z,16.30
2018-04-19T06:59:40.677Z,16.40
2018-04-19T07:02:13.580Z,16.60
2018-04-19T07:04:45.697Z,16.70
2018-04-19T07:07:17.770Z,16.80
2018-04-19T07:09:48.968Z,16.80
2018-04-19T07:12:20.249Z,16.90
2018-04-19T07:14:52.174Z,17.10
2018-04-19T07:17:23.642Z,17.10
2018-04-19T07:19:54.814Z,17.10
2018-04-19T07:22:26.868Z,17.10
2018-04-19T07:24:58.770Z,17.10
2018-04-19T07:27:30.031Z,17.10
2018-04-19T07:30:01.301Z,17.30
2018-04-19T07:32:32.499Z,17.30
2018-04-19T07:35:03.809Z,17.50
2018-04-19T07:37:35.738Z,17.60
2018-04-19T07:40:07.711Z,17.60
2018-04-19T07:42:38.926Z,17.60
2018-04-19T07:45:10.125Z,17.70
2018-04-19T07:47:41.275Z,17.70
2018-04-19T07:50:12.497Z,17.80
2018-04-19T07:52:44.487Z,17.90
2018-04-19T07:55:15.966Z,17.90
2018-04-19T07:57:47.160Z,18.00
2018-04-19T08:00:18.429Z,18.10
2018-04-19T08:02:49.641Z,18.10
2018-04-19T08:05:21.644Z,18.20
2018-04-19T08:07:52.896Z,18.20
2018-04-19T08:10:24.095Z,18.30
2018-04-19T08:12:56.101Z,18.30
2018-04-19T08:15:27.269Z,18.30
2018-04-19T08:18:00.125Z,18.50
2018-04-19T08:20:31.388Z,18.50
2018-04-19T08:23:02.589Z,18.60
2018-04-19T08:25:33.945Z,18.70
2018-04-19T08:28:05.126Z,18.70
2018-04-19T08:30:36.465Z,18.70
2018-04-19T08:33:07.753Z,18.70
2018-04-19T08:35:39.006Z,18.70
2018-04-19T08:38:10.237Z,18.60
2018-04-19T08:40:42.244Z,18.90
2018-04-19T08:43:14.123Z,18.80
2018-04-19T08:45:45.477Z,19.00
2018-04-19T08:48:16.725Z,19.00
2018-04-19T08:50:47.956Z,19.10
2018-04-19T08:53:19.806Z,19.00
2018-04-19T08:55:51.072Z,19.10
2018-04-19T08:58:22.351Z,19.10
2018-04-19T09:00:55.074Z,19.30
2018-04-19T09:03:27.062Z,19.30
2018-04-19T09:05:58.331Z,19.30
2018-04-19T09:08:45.535Z,19.40
2018-04-19T09:11:17.523Z,19.40
2018-04-19T09:13:48.815Z,19.40
2018-04-19T09:16:20.039Z,19.50
2018-04-19T09:18:51.253Z,19.70
2018-04-19T09:21:23.381Z,19.80
2018-04-19T09:23:54.537Z,19.80
2018-04-19T09:26:26.551Z,19.90
2018-04-19T09:28:57.738Z,19.90
2018-04-19T09:31:28.991Z,19.90
2018-04-19T09:34:01.062Z,20.00
2018-04-19T09:36:32.368Z,20.00
2018-04-19T09:39:03.693Z,20.10
2018-04-19T09:41:34.957Z,20.10
2018-04-19T09:44:06.382Z,20.10
2018-04-19T09:46:37.585Z,20.10
2018-04-19T09:49:08.968Z,20.20
2018-04-19T09:51:40.192Z,20.20
2018-04-19T09:54:11.718Z,20.30
2018-04-19T09:56:42.906Z,20.30
2018-04-19T09:59:14.117Z,20.30
2018-04-19T10:01:51.313Z,20.50
2018-04-19T10:04:28.784Z,20.40
2018-04-19T10:07:00.192Z,20.70
2018-04-19T10:09:31.440Z,20.80
2018-04-19T10:12:02.853Z,20.80
2018-04-19T10:14:34.110Z,21.00
2018-04-19T10:17:05.468Z,21.20
2018-04-19T10:19:36.778Z,21.20
2018-04-19T10:22:08.009Z,21.10
2018-04-19T10:24:39.249Z,21.10
2018-04-19T10:27:10.439Z,21.30
2018-04-19T10:29:41.683Z,21.40
2018-04-19T10:32:12.874Z,21.60
2018-04-19T10:34:44.193Z,21.50
2018-04-19T10:37:15.406Z,21.60
2018-04-19T10:39:46.711Z,21.70
2018-04-19T10:42:17.940Z,21.80
2018-04-19T10:44:49.378Z,21.90
2018-04-19T10:47:20.581Z,21.90
2018-04-19T10:49:51.795Z,21.80
2018-04-19T10:52:23.047Z,21.80
2018-04-19T10:54:54.351Z,21.80
2018-04-19T10:57:25.544Z,21.50
2018-04-19T10:59:57.568Z,21.40
2018-04-19T11:02:28.782Z,21.40
2018-04-19T11:05:00.057Z,21.50
2018-04-19T11:07:31.495Z,21.70
2018-04-19T11:10:02.753Z,21.70
2018-04-19T11:12:33.988Z,21.70
2018-04-19T11:15:05.261Z,21.70
2018-04-19T11:17:37.249Z,21.90
2018-04-19T11:20:09.445Z,22.10
2018-04-19T11:22:40.703Z,22.10
2018-04-19T11:25:12.092Z,22.30
2018-04-19T11:27:44.051Z,22.50
2018-04-19T11:30:15.295Z,22.50
2018-04-19T11:32:46.492Z,22.50
2018-04-19T11:35:17.757Z,22.50
2018-04-19T11:37:48.999Z,22.50
2018-04-19T11:40:20.254Z,22.50
2018-04-19T11:42:51.506Z,22.70
2018-04-19T11:45:22.758Z,23.00
2018-04-19T11:47:54.117Z,23.10
2018-04-19T11:50:25.425Z,23.00
2018-04-19T11:53:00.391Z,23.00
2018-04-19T11:55:33.272Z,23.20
2018-04-19T11:58:06.308Z,23.30
2018-04-19T12:00:37.751Z,23.40
2018-04-19T12:03:09.765Z,23.10
2018-04-19T12:05:41.766Z,23.20
2018-04-19T12:08:12.992Z,23.20
2018-04-19T12:10:45.056Z,23.20
2018-04-19T12:13:16.974Z,23.10
2018-04-19T12:15:48.361Z,23.10
2018-04-19T12:18:19.789Z,23.00
2018-04-19T12:20:51.064Z,23.10
2018-04-19T12:23:23.033Z,23.10
2018-04-19T12:25:54.231Z,23.10
2018-04-19T12:28:25.455Z,23.20
2018-04-19T12:30:56.696Z,23.20
2018-04-19T12:33:27.886Z,23.30
2018-04-19T12:35:59.244Z,23.50
2018-04-19T12:38:30.504Z,23.40
2018-04-19T12:41:01.824Z,23.40
2018-04-19T12:43:33.121Z,23.30
2018-04-19T12:46:04.358Z,23.30
2018-04-19T12:48:35.549Z,23.50
2018-04-19T12:51:07.506Z,23.50
2018-04-19T12:53:38.702Z,23.50
2018-04-19T12:56:09.912Z,23.70
2018-04-19T12:58:41.254Z,23.80
2018-04-19T13:01:12.473Z,23.80
2018-04-19T13:03:43.840Z,23.70
2018-04-19T13:06:17.125Z,23.70
2018-04-19T13:08:49.175Z,23.60
2018-04-19T13:11:20.553Z,23.50
2018-04-19T13:13:52.198Z,23.60
2018-04-19T13:16:23.776Z,23.60
2018-04-19T13:18:55.268Z,23.80
2018-04-19T13:21:26.760Z,23.80
2018-04-19T13:23:58.181Z,24.00
2018-04-19T13:26:29.616Z,24.30
2018-04-19T13:29:00.945Z,24.20
2018-04-19T13:31:32.480Z,24.10
2018-04-19T13:34:03.909Z,24.20
2018-04-19T13:36:35.502Z,24.40
2018-04-19T13:39:07.818Z,24.30
2018-04-19T13:41:39.272Z,24.30
2018-04-19T13:44:11.335Z,24.30
2018-04-19T13:46:43.483Z,24.20
2018-04-19T13:49:14.736Z,24.20
2018-04-19T13:51:47.300Z,24.10
2018-04-19T13:54:18.626Z,24.10
2018-04-19T13:56:50.081Z,24.00
2018-04-19T13:59:21.533Z,24.00
2018-04-19T14:01:54.471Z,24.10
2018-04-19T14:04:26.587Z,24.20
2018-04-19T14:06:58.049Z,24.10
2018-04-19T14:09:29.309Z,24.10
2018-04-19T14:12:01.255Z,24.20
2018-04-19T14:14:32.549Z,24.20
2018-04-19T14:17:03.915Z,24.20
2018-04-19T14:19:35.173Z,24.20
2018-04-19T14:22:06.538Z,24.40
2018-04-19T14:24:38.515Z,24.40
2018-04-19T14:27:09.838Z,24.40
2018-04-19T14:29:41.113Z,24.50
2018-04-19T14:32:13.088Z,24.40
2018-04-19T14:34:44.417Z,24.40
2018-04-19T14:37:16.491Z,24.50
2018-04-19T14:39:47.723Z,24.40
2018-04-19T14:42:19.747Z,24.60
2018-04-19T14:44:50.978Z,24.60
2018-04-19T14:47:22.257Z,24.60
2018-04-19T14:49:53.451Z,24.50
2018-04-19T14:52:24.730Z,24.10
2018-04-19T14:54:56.030Z,24.00
2018-04-19T14:57:27.389Z,23.80
2018-04-19T14:59:58.686Z,23.90
2018-04-19T15:02:29.957Z,23.90
2018-04-19T15:05:01.257Z,24.00
2018-04-19T15:07:32.610Z,24.10
2018-04-19T15:10:03.858Z,24.20
2018-04-19T15:12:35.845Z,24.20
2018-04-19T15:15:07.802Z,24.20
2018-04-19T15:17:39.921Z,24.20
2018-04-19T15:20:11.203Z,24.10
2018-04-19T15:22:42.442Z,24.20
2018-04-19T15:25:13.666Z,24.00
2018-04-19T15:27:44.961Z,24.00
2018-04-19T15:30:16.270Z,24.00
2018-04-19T15:32:48.312Z,23.70
2018-04-19T15:35:19.785Z,23.70
2018-04-19T15:37:51.103Z,23.70
2018-04-19T15:40:22.355Z,23.70
2018-04-19T15:42:53.639Z,23.60
2018-04-19T15:45:24.912Z,23.50
2018-04-19T15:47:56.137Z,23.60
2018-04-19T15:50:27.519Z,23.70
2018-04-19T15:52:59.020Z,23.70
2018-04-19T15:55:30.254Z,23.70
2018-04-19T15:58:01.656Z,23.80
2018-04-19T16:00:32.933Z,23.80
2018-04-19T16:03:05.191Z,23.70
2018-04-19T16:05:36.428Z,23.60
2018-04-19T16:08:11.059Z,23.60
2018-04-19T16:10:44.596Z,23.40
2018-04-19T16:13:16.083Z,23.40
2018-04-19T16:15:47.300Z,23.40
2018-04-19T16:18:19.363Z,23.40
2018-04-19T16:20:50.544Z,23.40
2018-04-19T16:23:21.827Z,23.50
2018-04-19T16:25:53.024Z,23.40
2018-04-19T16:28:24.803Z,23.40
2018-04-19T16:30:55.984Z,23.30
2018-04-19T16:33:28.572Z,23.20
2018-04-19T16:36:00.814Z,23.20
2018-04-19T16:38:32.079Z,23.10
2018-04-19T16:41:04.118Z,23.20
2018-04-19T16:43:35.964Z,23.20
2018-04-19T16:46:07.426Z,23.20
2018-04-19T16:48:38.641Z,23.20
2018-04-19T16:51:09.909Z,23.10
2018-04-19T16:53:41.088Z,23.10
2018-04-19T16:56:13.047Z,22.90
2018-04-19T16:58:45.075Z,22.80
2018-04-19T17:01:16.330Z,22.80
2018-04-19T17:03:47.660Z,22.80
2018-04-19T17:06:18.875Z,22.80
2018-04-19T17:08:50.087Z,22.80
2018-04-19T17:11:21.286Z,22.80
2018-04-19T17:13:52.607Z,22.80
2018-04-19T17:16:23.808Z,22.70
2018-04-19T17:18:55.889Z,22.60
2018-04-19T17:21:27.825Z,22.60
2018-04-19T17:23:59.054Z,22.50
2018-04-19T17:26:30.851Z,22.50
2018-04-19T17:29:02.785Z,22.30
2018-04-19T17:31:34.743Z,22.30
2018-04-19T17:34:06.649Z,22.30
2018-04-19T17:36:38.638Z,22.20
2018-04-19T17:39:09.984Z,22.30
2018-04-19T17:41:41.260Z,22.20
2018-04-19T17:44:12.565Z,22.10
2018-04-19T17:46:43.930Z,22.00
2018-04-19T17:49:15.380Z,21.90
2018-04-19T17:51:46.640Z,21.90
2018-04-19T17:54:17.856Z,21.80
2018-04-19T17:56:49.776Z,21.70
2018-04-19T17:59:21.052Z,21.70
2018-04-19T18:01:52.466Z,21.70
2018-04-19T18:04:24.467Z,21.60
2018-04-19T18:06:55.724Z,21.50
2018-04-19T18:09:26.938Z,21.40
2018-04-19T18:11:58.202Z,21.50
2018-04-19T18:14:29.454Z,21.40
2018-04-19T18:17:00.651Z,21.40
2018-04-19T18:19:31.944Z,21.30
2018-04-19T18:22:03.363Z,21.20
2018-04-19T18:24:34.647Z,21.10
2018-04-19T18:27:05.843Z,21.10
2018-04-19T18:29:37.817Z,20.90
2018-04-19T18:32:09.040Z,20.90
2018-04-19T18:34:41.048Z,20.80
2018-04-19T18:37:12.246Z,20.80
2018-04-19T18:39:44.289Z,20.70
2018-04-19T18:42:15.483Z,20.70
2018-04-19T18:44:46.800Z,20.70
2018-04-19T18:47:18.095Z,20.60
2018-04-19T18:49:49.351Z,20.60
2018-04-19T18:52:20.590Z,20.50
2018-04-19T18:54:51.819Z,20.40
2018-04-19T18:57:23.014Z,20.40
2018-04-19T18:59:54.548Z,20.30
2018-04-19T19:02:25.760Z,20.20
2018-04-19T19:04:56.945Z,20.20
2018-04-19T19:07:28.174Z,20.20
2018-04-19T19:09:59.377Z,20.10
2018-04-19T19:12:30.573Z,20.10
2018-04-19T19:15:01.978Z,20.00
2018-04-19T19:17:45.542Z,20.00
2018-04-19T19:20:16.780Z,20.00
2018-04-19T19:22:47.995Z,19.90
2018-04-19T19:25:19.286Z,19.90
2018-04-19T19:27:50.533Z,19.80
2018-04-19T19:30:21.729Z,19.70
2018-04-19T19:32:52.991Z,19.70
2018-04-19T19:35:24.284Z,19.60
2018-04-19T19:37:55.581Z,19.60
2018-04-19T19:40:26.939Z,19.60
2018-04-19T19:42:58.279Z,19.50
2018-04-19T19:45:29.516Z,19.40
2018-04-19T19:48:00.710Z,19.40
2018-04-19T19:50:31.987Z,19.30
2018-04-19T19:53:03.170Z,19.30
2018-04-19T19:55:41.352Z,19.20
2018-04-19T19:58:12.615Z,19.20
2018-04-19T20:00:43.895Z,19.20
2018-04-19T20:03:15.065Z,19.10
2018-04-19T20:05:46.314Z,19.10
2018-04-19T20:08:18.252Z,19.00
2018-04-19T20:10:50.222Z,19.00
2018-04-19T20:13:22.221Z,18.90
2018-04-19T20:15:53.459Z,18.90
2018-04-19T20:18:24.643Z,18.90
2018-04-19T20:20:56.946Z,18.80
2018-04-19T20:23:28.182Z,18.80
2018-04-19T20:26:00.376Z,18.80
2018-04-19T20:28:31.618Z,18.80
2018-04-19T20:31:02.823Z,18.70
2018-04-19T20:33:34.749Z,18.60
2018-04-19T20:36:06.020Z,18.60
2018-04-19T20:38:38.070Z,18.60
2018-04-19T20:41:09.412Z,18.60
2018-04-19T20:43:40.641Z,18.50
2018-04-19T20:46:11.927Z,18.50
2018-04-19T20:48:43.235Z,18.50
2018-04-19T20:51:14.494Z,18.40
2018-04-19T20:53:45.676Z,18.40
2018-04-19T20:56:17.645Z,18.30
2018-04-19T20:58:48.837Z,18.30
2018-04-19T21:01:20.144Z,18.30
2018-04-19T21:03:51.408Z,18.30
2018-04-19T21:06:22.588Z,18.30
2018-04-19T21:08:53.847Z,18.20
2018-04-19T21:11:25.815Z,18.20
2018-04-19T21:13:57.118Z,18.10
2018-04-19T21:16:28.325Z,18.10
2018-04-19T21:18:59.577Z,18.10
2018-04-19T21:21:30.853Z,18.00
2018-04-19T21:24:02.019Z,18.00
2018-04-19T21:26:33.254Z,18.00
2018-04-19T21:29:04.573Z,17.90
2018-04-19T21:31:35.764Z,18.00
2018-04-19T21:34:07.751Z,18.00
2018-04-19T21:36:38.974Z,18.00
2018-04-19T21:39:10.275Z,18.00
2018-04-19T21:41:41.647Z,17.90
2018-04-19T21:44:12.892Z,17.90
2018-04-19T21:46:44.144Z,17.90
2018-04-19T21:49:15.337Z,17.90
2018-04-19T21:51:46.556Z,17.80
2018-04-19T21:54:17.739Z,17.80
2018-04-19T21:56:48.955Z,17.70
2018-04-19T21:59:20.252Z,17.70
2018-04-19T22:01:51.589Z,17.70
2018-04-19T22:04:22.820Z,17.70
2018-04-19T22:06:54.084Z,17.60
2018-04-19T22:09:25.301Z,17.60
2018-04-19T22:11:57.335Z,17.60
2018-04-19T22:14:28.533Z,17.50
2018-04-19T22:16:59.758Z,17.60
2018-04-19T22:19:30.961Z,17.50
2018-04-19T22:22:02.272Z,17.50
2018-04-19T22:24:33.665Z,17.60
2018-04-19T22:27:04.871Z,17.60
2018-04-19T22:29:36.090Z,17.50
2018-04-19T22:32:07.383Z,17.50
2018-04-19T22:34:39.487Z,17.40
2018-04-19T22:37:10.662Z,17.40
2018-04-19T22:39:41.956Z,17.40
2018-04-19T22:42:20.270Z,17.40
2018-04-19T22:44:51.515Z,17.30
2018-04-19T22:47:22.725Z,17.30
2018-04-19T22:49:54.966Z,17.30
2018-04-19T22:52:26.140Z,17.30
2018-04-19T22:57:30.374Z,17.30
2018-04-19T23:00:01.622Z,17.20
2018-04-19T23:02:33.611Z,17.20
2018-04-19T23:05:04.848Z,17.10
2018-04-19T23:07:36.027Z,17.00
2018-04-19T23:10:07.410Z,17.00
2018-04-19T23:12:39.350Z,16.90
2018-04-19T23:15:10.608Z,17.00
2018-04-19T23:17:42.610Z,16.90
2018-04-19T23:20:13.854Z,16.90
2018-04-19T23:22:45.009Z,16.80
2018-04-19T23:25:16.245Z,16.80
2018-04-19T23:27:48.588Z,16.70
2018-04-19T23:30:22.192Z,16.60
2018-04-19T23:32:55.263Z,16.60
2018-04-19T23:35:27.276Z,16.60
2018-04-19T23:37:59.629Z,16.50
2018-04-19T23:40:30.871Z,16.50
2018-04-19T23:43:02.147Z,16.50
2018-04-19T23:45:33.351Z,16.60
2018-04-19T23:48:04.545Z,16.60
2018-04-19T23:50:35.782Z,16.70
2018-04-19T23:53:06.990Z,16.70
2018-04-19T23:55:38.248Z,16.70
2018-04-19T23:58:09.459Z,16.70
